createdAt,value
2022-07-25T00:01:59.639Z,6.90
2022-07-25T00:04:02.274Z,7.63
2022-07-25T00:06:04.895Z,7.05
2022-07-25T00:08:06.476Z,6.25
2022-07-25T00:10:10.317Z,6.03
2022-07-25T00:12:11.831Z,4.88
2022-07-25T00:14:13.504Z,5.40
2022-07-25T00:16:15.068Z,5.57
2022-07-25T00:18:16.653Z,6.72
2022-07-25T00:20:18.299Z,5.50
2022-07-25T00:22:20.021Z,5.82
2022-07-25T00:24:21.533Z,5.75
2022-07-25T00:26:24.410Z,5.93
2022-07-25T00:28:25.929Z,6.57
2022-07-25T00:30:27.424Z,6.00
2022-07-25T00:32:28.970Z,6.22
2022-07-25T00:34:30.671Z,6.47
2022-07-25T00:36:32.210Z,5.60
2022-07-25T00:38:33.790Z,5.75
2022-07-25T00:40:35.963Z,4.68
2022-07-25T00:42:39.413Z,4.50
2022-07-25T00:44:41.047Z,5.88
2022-07-25T00:46:42.618Z,4.32
2022-07-25T00:48:44.693Z,4.90
2022-07-25T00:50:46.465Z,6.13
2022-07-25T00:52:48.395Z,4.72
2022-07-25T00:54:50.154Z,4.80
2022-07-25T00:56:52.377Z,4.82
2022-07-25T00:58:55.281Z,4.60
2022-07-25T01:00:56.983Z,3.60
2022-07-25T01:02:58.646Z,4.40
2022-07-25T01:05:00.219Z,5.53
2022-07-25T01:07:02.513Z,5.35
2022-07-25T01:09:04.437Z,4.20
2022-07-25T01:11:06.268Z,5.03
2022-07-25T01:13:07.787Z,4.15
2022-07-25T01:15:11.131Z,4.25
2022-07-25T01:17:12.719Z,4.22
2022-07-25T01:19:14.258Z,4.47
2022-07-25T01:21:17.188Z,6.53
2022-07-25T01:23:18.744Z,4.65
2022-07-25T01:25:21.061Z,4.57
2022-07-25T01:27:22.578Z,4.18
2022-07-25T01:29:24.104Z,4.43
2022-07-25T01:31:25.715Z,4.05
2022-07-25T01:33:27.348Z,3.53
2022-07-25T01:35:28.910Z,4.88
2022-07-25T01:37:31.924Z,4.07
2022-07-25T01:39:33.459Z,5.20
2022-07-25T01:41:35.065Z,5.25
2022-07-25T01:43:36.596Z,3.90
2022-07-25T01:45:38.377Z,4.82
2022-07-25T01:47:40.786Z,4.63
2022-07-25T01:49:42.407Z,4.05
2022-07-25T01:51:43.942Z,4.95
2022-07-25T01:53:46.861Z,3.95
2022-07-25T01:55:48.791Z,3.90
2022-07-25T01:57:50.628Z,3.97
2022-07-25T01:59:52.266Z,4.97
2022-07-25T02:01:53.907Z,4.90
2022-07-25T02:03:55.526Z,4.60
2022-07-25T02:05:58.053Z,5.43
2022-07-25T02:07:59.559Z,5.05
2022-07-25T02:10:03.740Z,4.63
2022-07-25T02:12:05.977Z,4.28
2022-07-25T02:14:08.272Z,5.75
2022-07-25T02:16:10.339Z,4.13
2022-07-25T02:18:12.330Z,4.03
2022-07-25T02:20:13.847Z,3.88
2022-07-25T02:22:15.714Z,6.47
2022-07-25T02:24:17.399Z,4.22
2022-07-25T02:26:20.269Z,5.22
2022-07-25T02:28:21.805Z,5.00
2022-07-25T02:30:23.322Z,4.40
2022-07-25T02:32:24.819Z,7.13
2022-07-25T02:34:26.383Z,5.63
2022-07-25T02:36:27.923Z,3.80
2022-07-25T02:38:29.555Z,4.72
2022-07-25T02:40:31.093Z,3.95
2022-07-25T02:42:34.213Z,4.55
2022-07-25T02:44:35.737Z,4.43
2022-07-25T02:46:37.430Z,4.47
2022-07-25T02:48:39.088Z,4.47
2022-07-25T02:50:40.791Z,4.15
2022-07-25T02:52:42.466Z,6.75
2022-07-25T02:54:44.033Z,4.25
2022-07-25T02:56:45.549Z,4.32
2022-07-25T02:58:48.626Z,4.25
2022-07-25T03:00:50.242Z,4.38
2022-07-25T03:02:51.849Z,4.45
2022-07-25T03:04:53.462Z,5.20
2022-07-25T03:06:54.959Z,4.10
2022-07-25T03:08:56.466Z,4.85
2022-07-25T03:10:58.143Z,5.85
2022-07-25T03:12:59.749Z,4.57
2022-07-25T03:15:03.668Z,5.93
2022-07-25T03:17:05.286Z,10.10
2022-07-25T03:19:06.855Z,5.45
2022-07-25T03:21:08.436Z,3.72
2022-07-25T03:23:10.057Z,4.00
2022-07-25T03:25:15.709Z,4.28
2022-07-25T03:27:23.165Z,5.50
2022-07-25T03:29:24.819Z,4.07
2022-07-25T03:31:27.772Z,4.72
2022-07-25T03:33:29.489Z,4.63
2022-07-25T03:35:31.042Z,4.90
2022-07-25T03:37:32.597Z,5.18
2022-07-25T03:39:34.094Z,5.00
2022-07-25T03:41:35.625Z,4.40
2022-07-25T03:43:37.620Z,4.55
2022-07-25T03:45:39.240Z,5.35
2022-07-25T03:47:42.373Z,4.25
2022-07-25T03:49:43.914Z,5.18
2022-07-25T03:51:45.591Z,6.30
2022-07-25T03:53:47.113Z,5.28
2022-07-25T03:55:48.811Z,4.57
2022-07-25T03:57:50.607Z,4.75
2022-07-25T03:59:52.148Z,5.88
2022-07-25T04:01:53.768Z,6.35
2022-07-25T04:03:56.765Z,6.55
2022-07-25T04:05:58.291Z,11.52
2022-07-25T04:07:59.846Z,6.55
2022-07-25T04:10:01.364Z,4.93
2022-07-25T04:12:03.097Z,6.60
2022-07-25T04:14:05.484Z,5.03
2022-07-25T04:16:11.526Z,8.23
2022-07-25T04:18:17.480Z,5.88
2022-07-25T04:20:23.817Z,6.38
2022-07-25T04:22:26.603Z,5.75
2022-07-25T04:24:28.162Z,6.80
2022-07-25T04:26:29.779Z,5.75
2022-07-25T04:28:31.309Z,7.93
2022-07-25T04:30:32.842Z,6.78
2022-07-25T04:32:34.365Z,4.97
2022-07-25T04:34:35.982Z,10.77
2022-07-25T04:36:38.926Z,6.55
2022-07-25T04:38:40.445Z,10.07
2022-07-25T04:40:42.222Z,17.77
2022-07-25T04:42:43.815Z,7.68
2022-07-25T04:44:45.348Z,8.68
2022-07-25T04:46:46.850Z,7.43
2022-07-25T04:48:49.466Z,6.05
2022-07-25T04:50:51.145Z,9.82
2022-07-25T04:52:54.198Z,7.47
2022-07-25T04:54:55.732Z,5.57
2022-07-25T04:56:57.229Z,6.45
2022-07-25T04:59:04.673Z,17.88
2022-07-25T05:01:08.312Z,6.57
2022-07-25T05:03:09.930Z,6.53
2022-07-25T05:05:20.949Z,6.43
2022-07-25T05:07:23.426Z,8.02
2022-07-25T05:09:27.203Z,7.32
2022-07-25T05:11:28.709Z,7.88
2022-07-25T05:13:30.275Z,6.35
2022-07-25T05:15:31.810Z,6.18
2022-07-25T05:17:33.307Z,8.52
2022-07-25T05:19:34.942Z,7.45
2022-07-25T05:21:36.486Z,6.22
2022-07-25T05:23:38.065Z,6.20
2022-07-25T05:25:41.082Z,6.38
2022-07-25T05:27:42.646Z,5.82
2022-07-25T05:29:44.205Z,6.82
2022-07-25T05:31:45.768Z,10.20
2022-07-25T05:33:47.350Z,8.90
2022-07-25T05:35:48.861Z,5.85
2022-07-25T05:37:50.432Z,11.30
2022-07-25T05:39:51.978Z,7.55
2022-07-25T05:41:55.495Z,6.88
2022-07-25T05:43:57.014Z,5.82
2022-07-25T05:46:01.515Z,9.05
2022-07-25T05:48:03.184Z,8.93
2022-07-25T05:50:05.425Z,10.02
2022-07-25T05:52:12.544Z,5.85
2022-07-25T05:54:14.769Z,7.57
2022-07-25T05:56:16.351Z,7.70
2022-07-25T05:58:19.230Z,8.07
2022-07-25T06:00:20.783Z,5.25
2022-07-25T06:02:22.446Z,5.47
2022-07-25T06:04:27.150Z,8.40
2022-07-25T06:06:28.958Z,8.07
2022-07-25T06:08:30.578Z,6.30
2022-07-25T06:10:32.096Z,6.40
2022-07-25T06:12:36.654Z,5.28
2022-07-25T06:14:39.779Z,6.95
2022-07-25T06:16:41.458Z,6.63
2022-07-25T06:18:42.997Z,6.22
2022-07-25T06:20:44.681Z,7.13
2022-07-25T06:22:46.196Z,5.95
2022-07-25T06:24:47.704Z,6.60
2022-07-25T06:26:49.223Z,8.00
2022-07-25T06:28:50.758Z,6.10
2022-07-25T06:30:54.035Z,5.97
2022-07-25T06:32:55.607Z,5.63
2022-07-25T06:34:57.954Z,8.27
2022-07-25T06:36:59.471Z,7.93
2022-07-25T06:39:01.125Z,7.50
2022-07-25T06:41:02.865Z,6.75
2022-07-25T06:43:04.380Z,7.22
2022-07-25T06:45:07.310Z,6.65
2022-07-25T06:47:10.280Z,9.18
2022-07-25T06:49:12.020Z,7.97
2022-07-25T06:51:13.706Z,6.85
2022-07-25T06:53:15.191Z,6.88
2022-07-25T06:55:16.945Z,7.57
2022-07-25T06:57:18.492Z,9.15
2022-07-25T06:59:20.038Z,8.13
2022-07-25T07:01:21.608Z,7.50
2022-07-25T07:03:24.576Z,9.30
2022-07-25T07:05:27.318Z,7.97
2022-07-25T07:07:28.829Z,7.43
2022-07-25T07:09:30.552Z,6.20
2022-07-25T07:11:32.172Z,7.35
2022-07-25T07:13:34.276Z,6.82
2022-07-25T07:15:36.629Z,6.68
2022-07-25T07:17:39.388Z,8.75
2022-07-25T07:19:42.261Z,6.25
2022-07-25T07:21:43.988Z,7.28
2022-07-25T07:23:45.534Z,8.32
2022-07-25T07:25:47.754Z,8.90
2022-07-25T07:27:50.364Z,9.40
2022-07-25T07:29:51.883Z,8.73
2022-07-25T07:31:53.446Z,8.50
2022-07-25T07:33:56.010Z,8.65
2022-07-25T07:35:59.090Z,7.22
2022-07-25T07:38:00.612Z,7.40
2022-07-25T07:40:02.166Z,6.03
2022-07-25T07:42:04.012Z,8.77
2022-07-25T07:44:05.785Z,7.43
2022-07-25T07:46:07.639Z,9.23
2022-07-25T07:48:09.212Z,8.82
2022-07-25T07:50:11.005Z,7.35
2022-07-25T07:52:13.980Z,6.68
2022-07-25T07:54:15.484Z,7.70
2022-07-25T07:56:17.730Z,6.78
2022-07-25T07:58:19.382Z,7.72
2022-07-25T08:00:21.658Z,8.27
2022-07-25T08:02:23.197Z,9.05
2022-07-25T08:04:24.760Z,9.10
2022-07-25T08:06:26.282Z,10.13
2022-07-25T08:08:31.418Z,11.15
2022-07-25T08:10:35.403Z,7.47
2022-07-25T08:12:40.607Z,7.68
2022-07-25T08:14:42.116Z,8.43
2022-07-25T08:16:43.694Z,8.20
2022-07-25T08:18:45.269Z,8.13
2022-07-25T08:20:47.440Z,8.55
2022-07-25T08:22:53.053Z,8.80
2022-07-25T08:24:58.994Z,7.53
2022-07-25T08:27:00.504Z,8.48
2022-07-25T08:29:18.228Z,10.80
2022-07-25T08:31:21.144Z,10.35
2022-07-25T08:33:22.676Z,12.02
2022-07-25T08:35:26.022Z,22.70
2022-07-25T08:37:27.776Z,14.20
2022-07-25T08:39:29.340Z,11.23
2022-07-25T08:41:33.054Z,10.68
2022-07-25T08:43:36.111Z,9.63
2022-07-25T08:45:43.707Z,10.30
2022-07-25T08:47:46.159Z,9.70
2022-07-25T08:49:47.986Z,9.57
2022-07-25T08:51:51.064Z,9.63
2022-07-25T08:53:54.746Z,11.10
2022-07-25T08:55:56.267Z,8.95
2022-07-25T08:57:59.195Z,7.78
2022-07-25T09:00:01.594Z,9.40
2022-07-25T09:02:03.183Z,8.43
2022-07-25T09:04:08.053Z,10.57
2022-07-25T09:06:18.262Z,11.05
2022-07-25T09:08:19.811Z,9.93
2022-07-25T09:10:23.077Z,9.32
2022-07-25T09:12:26.268Z,9.25
2022-07-25T09:14:29.263Z,10.65
2022-07-25T09:16:32.648Z,10.27
2022-07-25T09:18:34.197Z,11.73
2022-07-25T09:20:41.983Z,11.88
2022-07-25T09:22:44.045Z,12.98
2022-07-25T09:24:45.931Z,11.25
2022-07-25T09:26:49.289Z,12.05
2022-07-25T09:28:52.108Z,9.18
2022-07-25T09:30:56.087Z,11.30
2022-07-25T09:33:01.209Z,12.82
2022-07-25T09:35:02.793Z,11.32
2022-07-25T09:37:06.659Z,11.05
2022-07-25T09:39:08.156Z,10.55
2022-07-25T09:41:09.725Z,9.25
2022-07-25T09:43:11.423Z,9.93
2022-07-25T09:45:14.364Z,10.60
2022-07-25T09:47:17.224Z,12.68
2022-07-25T09:49:18.808Z,10.43
2022-07-25T09:51:20.351Z,8.57
2022-07-25T09:53:21.846Z,11.15
2022-07-25T09:55:24.407Z,11.75
2022-07-25T09:57:27.349Z,12.18
2022-07-25T09:59:28.889Z,15.80
2022-07-25T10:01:36.723Z,11.38
2022-07-25T10:03:48.715Z,14.27
2022-07-25T10:06:02.184Z,10.82
2022-07-25T10:08:06.834Z,11.77
2022-07-25T10:10:08.614Z,12.70
2022-07-25T10:12:11.420Z,10.25
2022-07-25T10:14:13.002Z,9.90
2022-07-25T10:16:16.418Z,13.45
2022-07-25T10:18:19.400Z,11.20
2022-07-25T10:20:27.909Z,10.25
2022-07-25T10:22:55.222Z,10.95
2022-07-25T10:25:10.248Z,10.88
2022-07-25T10:27:13.342Z,11.50
2022-07-25T10:29:16.056Z,12.13
2022-07-25T10:31:23.482Z,10.43
2022-07-25T10:33:25.135Z,10.98
2022-07-25T10:35:28.426Z,10.68
2022-07-25T10:37:29.961Z,15.10
2022-07-25T10:39:37.912Z,11.38
2022-07-25T10:41:40.784Z,10.85
2022-07-25T10:43:48.516Z,13.32
2022-07-25T10:45:52.741Z,13.63
2022-07-25T10:47:54.837Z,10.45
2022-07-25T10:50:16.790Z,11.60
2022-07-25T10:52:20.936Z,11.52
2022-07-25T10:54:23.073Z,11.55
2022-07-25T10:56:25.950Z,13.68
2022-07-25T10:58:27.595Z,11.63
2022-07-25T11:00:29.688Z,11.98
2022-07-25T11:02:31.629Z,10.63
2022-07-25T11:04:33.489Z,11.00
2022-07-25T11:06:37.489Z,8.93
2022-07-25T11:08:41.177Z,11.70
2022-07-25T11:10:50.698Z,13.40
2022-07-25T11:12:52.334Z,11.23
2022-07-25T11:14:59.766Z,10.30
2022-07-25T11:17:11.980Z,8.98
2022-07-25T11:19:21.677Z,14.68
2022-07-25T11:21:23.226Z,9.95
2022-07-25T11:23:24.798Z,9.30
2022-07-25T11:25:27.708Z,10.02
2022-07-25T11:27:31.060Z,12.27
2022-07-25T11:29:32.626Z,11.10
2022-07-25T11:31:34.249Z,11.73
2022-07-25T11:33:38.642Z,13.73
2022-07-25T11:35:40.847Z,10.63
2022-07-25T11:37:44.325Z,12.32
2022-07-25T11:39:47.908Z,9.90
2022-07-25T11:42:00.534Z,10.32
2022-07-25T11:44:02.078Z,11.18
2022-07-25T11:46:06.434Z,8.30
2022-07-25T11:48:09.542Z,9.43
2022-07-25T11:50:11.333Z,10.45
2022-07-25T11:52:20.573Z,10.80
2022-07-25T11:54:22.513Z,12.32
2022-07-25T11:58:57.739Z,11.13
2022-07-25T12:00:59.395Z,8.77
2022-07-25T12:03:07.905Z,12.02
2022-07-25T12:05:13.039Z,9.40
2022-07-25T12:07:14.704Z,10.63
2022-07-25T12:09:19.387Z,11.32
2022-07-25T12:11:23.029Z,10.18
2022-07-25T12:13:26.304Z,9.85
2022-07-25T12:15:31.974Z,10.02
2022-07-25T12:17:33.504Z,9.63
2022-07-25T12:19:35.151Z,12.90
2022-07-25T12:21:36.853Z,9.70
2022-07-25T12:23:38.564Z,10.20
2022-07-25T12:25:41.791Z,10.80
2022-07-25T12:27:43.871Z,13.15
2022-07-25T12:29:45.394Z,11.57
2022-07-25T12:31:48.261Z,13.38
2022-07-25T12:33:49.846Z,9.30
2022-07-25T12:35:51.416Z,8.02
2022-07-25T12:37:53.400Z,13.35
2022-07-25T12:39:55.184Z,14.40
2022-07-25T12:41:56.707Z,9.25
2022-07-25T12:43:58.301Z,13.18
2022-07-25T12:45:59.977Z,14.05
2022-07-25T12:48:03.352Z,12.60
2022-07-25T12:50:06.025Z,9.80
2022-07-25T12:52:07.615Z,14.68
2022-07-25T12:54:09.569Z,11.45
2022-07-25T12:56:11.530Z,9.38
2022-07-25T12:58:13.072Z,9.10
2022-07-25T13:00:16.466Z,11.82
2022-07-25T13:02:18.139Z,11.25
2022-07-25T13:04:21.056Z,9.90
2022-07-25T13:06:22.608Z,13.18
2022-07-25T13:08:24.226Z,11.90
2022-07-25T13:10:25.749Z,11.35
2022-07-25T13:12:27.282Z,11.68
2022-07-25T13:14:28.942Z,12.35
2022-07-25T13:16:30.643Z,10.73
2022-07-25T13:18:32.231Z,11.38
2022-07-25T13:20:35.126Z,11.07
2022-07-25T13:22:36.747Z,12.70
2022-07-25T13:24:38.382Z,11.50
2022-07-25T13:26:40.079Z,13.73
2022-07-25T13:28:41.669Z,8.73
2022-07-25T13:30:43.611Z,11.98
2022-07-25T13:32:45.209Z,10.18
2022-07-25T13:34:46.833Z,11.05
2022-07-25T13:36:49.807Z,12.18
2022-07-25T13:38:51.540Z,12.30
2022-07-25T13:40:58.413Z,15.30
2022-07-25T13:43:00.425Z,10.55
2022-07-25T13:45:01.984Z,11.95
2022-07-25T13:47:04.101Z,12.38
2022-07-25T13:49:06.016Z,12.15
2022-07-25T13:51:07.788Z,13.15
2022-07-25T13:53:10.706Z,11.00
2022-07-25T13:55:12.240Z,13.30
2022-07-25T13:57:13.814Z,12.15
2022-07-25T13:59:20.998Z,11.48
2022-07-25T14:01:23.298Z,11.15
2022-07-25T14:03:25.040Z,9.73
2022-07-25T14:05:26.706Z,9.30
2022-07-25T14:07:28.315Z,9.25
2022-07-25T14:09:31.330Z,10.00
2022-07-25T14:11:32.926Z,8.85
2022-07-25T14:13:34.549Z,14.02
2022-07-25T14:15:37.146Z,10.48
2022-07-25T14:17:38.677Z,17.23
2022-07-25T14:19:40.203Z,12.48
2022-07-25T14:21:41.765Z,11.10
2022-07-25T14:23:43.269Z,9.93
2022-07-25T14:25:46.379Z,13.68
2022-07-25T14:27:48.017Z,10.45
2022-07-25T14:29:49.689Z,12.75
2022-07-25T14:31:51.316Z,14.93
2022-07-25T14:33:53.070Z,11.55
2022-07-25T14:35:54.670Z,8.23
2022-07-25T14:37:56.240Z,11.15
2022-07-25T14:39:58.078Z,12.20
2022-07-25T14:42:00.986Z,9.98
2022-07-25T14:44:02.563Z,12.15
2022-07-25T14:46:05.386Z,11.32
2022-07-25T14:48:07.123Z,13.88
2022-07-25T14:50:09.621Z,12.20
2022-07-25T14:52:11.567Z,9.73
2022-07-25T14:54:13.229Z,10.13
2022-07-25T14:56:14.716Z,11.80
2022-07-25T14:58:17.656Z,9.45
2022-07-25T15:00:19.560Z,11.02
2022-07-25T15:02:21.133Z,13.82
2022-07-25T15:04:22.946Z,14.23
2022-07-25T15:06:28.912Z,15.50
2022-07-25T15:08:30.754Z,13.02
2022-07-25T15:10:32.487Z,13.98
2022-07-25T15:12:34.031Z,16.33
2022-07-25T15:14:36.924Z,12.05
2022-07-25T15:16:39.061Z,11.02
2022-07-25T15:19:05.336Z,11.07
2022-07-25T15:21:02.327Z,14.15
2022-07-25T15:23:03.890Z,11.88
2022-07-25T15:25:45.093Z,13.77
2022-07-25T15:27:27.556Z,15.40
2022-07-25T15:29:29.102Z,10.48
2022-07-25T15:31:32.078Z,13.20
2022-07-25T15:33:33.709Z,12.88
2022-07-25T15:35:35.313Z,14.20
2022-07-25T15:37:36.858Z,14.60
2022-07-25T15:39:38.390Z,12.43
2022-07-25T15:41:39.923Z,13.45
2022-07-25T15:43:41.576Z,14.93
2022-07-25T15:45:44.491Z,14.60
2022-07-25T15:47:50.875Z,12.27
2022-07-25T15:49:52.708Z,14.65
2022-07-25T15:51:54.272Z,14.88
2022-07-25T15:53:55.859Z,12.60
2022-07-25T15:55:57.733Z,13.23
2022-07-25T15:58:00.005Z,13.65
2022-07-25T16:00:01.672Z,12.63
2022-07-25T16:02:03.212Z,12.45
2022-07-25T16:04:06.229Z,12.95
2022-07-25T16:06:08.150Z,11.88
2022-07-25T16:08:09.726Z,11.77
2022-07-25T16:10:11.660Z,16.27
2022-07-25T16:12:13.328Z,13.25
2022-07-25T16:14:14.901Z,12.13
2022-07-25T16:16:16.586Z,12.07
2022-07-25T16:18:18.253Z,13.18
2022-07-25T16:20:21.125Z,11.90
2022-07-25T16:22:22.761Z,13.75
2022-07-25T16:24:24.478Z,13.13
2022-07-25T16:26:26.218Z,14.95
2022-07-25T16:28:27.861Z,13.88
2022-07-25T16:30:29.455Z,14.75
2022-07-25T16:32:31.066Z,14.63
2022-07-25T16:34:32.675Z,15.15
2022-07-25T16:36:35.710Z,13.52
2022-07-25T16:38:37.300Z,13.40
2022-07-25T16:40:38.847Z,12.20
2022-07-25T16:42:43.243Z,12.90
2022-07-25T16:44:44.789Z,12.50
2022-07-25T16:46:46.549Z,14.18
2022-07-25T16:48:48.259Z,12.07
2022-07-25T16:50:49.807Z,14.50
2022-07-25T16:52:52.669Z,14.23
2022-07-25T16:54:54.327Z,13.52
2022-07-25T16:56:59.529Z,13.00
2022-07-25T16:59:02.610Z,10.25
2022-07-25T17:01:04.403Z,10.73
2022-07-25T17:03:06.088Z,37.88
2022-07-25T17:05:08.467Z,17.95
2022-07-25T17:07:10.180Z,17.38
2022-07-25T17:09:13.119Z,12.77
2022-07-25T17:11:14.717Z,10.50
2022-07-25T17:13:16.293Z,12.98
2022-07-25T17:15:17.954Z,13.20
2022-07-25T17:17:19.493Z,12.05
2022-07-25T17:19:21.085Z,13.77
2022-07-25T17:21:22.702Z,17.85
2022-07-25T17:23:24.671Z,14.65
2022-07-25T17:25:27.619Z,21.02
2022-07-25T17:27:29.630Z,10.18
2022-07-25T17:29:31.236Z,11.70
2022-07-25T17:31:32.866Z,13.35
2022-07-25T17:33:34.643Z,11.30
2022-07-25T17:35:36.176Z,10.57
2022-07-25T17:37:38.092Z,11.88
2022-07-25T17:39:40.966Z,11.55
2022-07-25T17:41:44.031Z,12.00
2022-07-25T17:43:45.555Z,10.80
2022-07-25T17:45:47.152Z,17.23
2022-07-25T17:47:49.236Z,12.45
2022-07-25T17:49:50.787Z,8.52
2022-07-25T17:51:52.333Z,11.00
2022-07-25T17:53:53.873Z,14.00
2022-07-25T17:55:55.461Z,12.70
2022-07-25T17:57:58.287Z,11.57
2022-07-25T17:59:59.817Z,11.55
2022-07-25T18:02:02.140Z,11.15
2022-07-25T18:04:04.034Z,13.13
2022-07-25T18:06:05.828Z,13.48
2022-07-25T18:08:07.529Z,13.13
2022-07-25T18:10:09.310Z,13.38
2022-07-25T18:12:10.962Z,12.57
2022-07-25T18:14:14.620Z,13.07
2022-07-25T18:16:16.205Z,14.38
2022-07-25T18:18:20.608Z,15.93
2022-07-25T18:20:22.430Z,12.20
2022-07-25T18:22:23.982Z,14.82
2022-07-25T18:24:29.199Z,14.13
2022-07-25T18:26:31.155Z,15.55
2022-07-25T18:28:32.694Z,14.27
2022-07-25T18:30:35.577Z,13.95
2022-07-25T18:32:37.894Z,13.70
2022-07-25T18:34:39.473Z,16.83
2022-07-25T18:36:41.294Z,13.65
2022-07-25T18:38:42.885Z,11.02
2022-07-25T18:40:44.583Z,13.52
2022-07-25T18:42:47.470Z,26.15
2022-07-25T18:44:49.108Z,11.93
2022-07-25T18:46:52.049Z,14.68
2022-07-25T18:48:53.736Z,11.48
2022-07-25T18:50:55.561Z,13.65
2022-07-25T18:52:57.223Z,12.30
2022-07-25T18:54:58.763Z,11.27
2022-07-25T18:57:00.423Z,11.90
2022-07-25T18:59:02.029Z,12.27
2022-07-25T19:01:04.217Z,11.95
2022-07-25T19:03:07.140Z,12.32
2022-07-25T19:05:09.241Z,14.02
2022-07-25T19:07:10.823Z,11.30
2022-07-25T19:09:12.512Z,12.02
2022-07-25T19:11:14.083Z,13.05
2022-07-25T19:13:39.210Z,11.18
2022-07-25T19:15:37.357Z,13.45
2022-07-25T19:17:39.317Z,10.90
2022-07-25T19:19:42.278Z,12.13
2022-07-25T19:21:43.881Z,10.63
2022-07-25T19:23:50.431Z,11.35
2022-07-25T19:27:54.349Z,11.85
2022-07-25T19:29:55.964Z,11.38
2022-07-25T19:31:57.555Z,11.40
2022-07-25T19:33:59.140Z,10.90
2022-07-25T19:36:02.175Z,12.07
2022-07-25T19:38:04.120Z,10.30
2022-07-25T19:40:06.733Z,13.82
2022-07-25T19:42:08.294Z,12.63
2022-07-25T19:44:10.288Z,10.32
2022-07-25T19:46:12.078Z,11.93
2022-07-25T19:48:13.749Z,10.57
2022-07-25T19:50:15.352Z,10.23
2022-07-25T19:52:18.314Z,10.95
2022-07-25T19:54:19.866Z,11.50
2022-07-25T19:56:21.363Z,12.00
2022-07-25T19:58:23.038Z,12.85
2022-07-25T20:00:24.926Z,13.05
2022-07-25T20:02:26.564Z,10.10
2022-07-25T20:04:28.097Z,10.65
2022-07-25T20:06:29.699Z,9.98
2022-07-25T20:08:32.757Z,7.82
2022-07-25T20:10:34.397Z,9.05
2022-07-25T20:12:35.962Z,8.48
2022-07-25T20:14:37.693Z,8.60
2022-07-25T20:16:39.836Z,9.98
2022-07-25T20:18:41.479Z,9.98
2022-07-25T20:20:43.056Z,7.88
2022-07-25T20:22:44.693Z,7.80
2022-07-25T20:24:50.962Z,8.25
2022-07-25T20:26:52.556Z,8.88
2022-07-25T20:28:54.145Z,9.27
2022-07-25T20:30:55.959Z,8.55
2022-07-25T20:32:57.606Z,8.38
2022-07-25T20:34:59.168Z,10.63
2022-07-25T20:37:00.770Z,9.70
2022-07-25T20:39:02.362Z,11.43
2022-07-25T20:41:05.650Z,10.23
2022-07-25T20:43:08.242Z,12.52
2022-07-25T20:45:10.447Z,11.93
2022-07-25T20:47:12.091Z,11.10
2022-07-25T20:49:14.074Z,10.68
2022-07-25T20:51:15.683Z,10.23
2022-07-25T20:53:17.269Z,11.18
2022-07-25T20:55:19.006Z,9.80
2022-07-25T20:57:21.952Z,10.27
2022-07-25T20:59:23.534Z,10.43
2022-07-25T21:01:25.217Z,10.70
2022-07-25T21:03:26.794Z,9.50
2022-07-25T21:05:28.564Z,15.70
2022-07-25T21:07:30.108Z,9.98
2022-07-25T21:09:32.806Z,11.77
2022-07-25T21:11:35.383Z,9.15
2022-07-25T21:13:38.318Z,9.73
2022-07-25T21:15:39.890Z,9.50
2022-07-25T21:17:41.529Z,9.88
2022-07-25T21:19:43.076Z,10.00
2022-07-25T21:21:44.601Z,9.57
2022-07-25T21:23:46.178Z,11.00
2022-07-25T21:25:48.301Z,12.57
2022-07-25T21:27:49.893Z,10.02
2022-07-25T21:29:52.780Z,12.60
2022-07-25T21:31:54.423Z,10.23
2022-07-25T21:33:56.193Z,8.88
2022-07-25T21:35:57.771Z,10.93
2022-07-25T21:37:59.718Z,9.38
2022-07-25T21:40:01.366Z,9.27
2022-07-25T21:42:04.185Z,12.57
2022-07-25T21:44:05.963Z,12.35
2022-07-25T21:46:08.911Z,13.88
2022-07-25T21:48:10.495Z,8.93
2022-07-25T21:50:13.138Z,10.65
2022-07-25T21:52:17.335Z,11.02
2022-07-25T21:54:19.560Z,8.68
2022-07-25T21:56:21.276Z,10.02
2022-07-25T21:58:22.847Z,11.48
2022-07-25T22:00:24.649Z,10.23
2022-07-25T22:02:27.560Z,10.30
2022-07-25T22:04:29.117Z,10.88
2022-07-25T22:06:30.741Z,11.10
2022-07-25T22:08:32.262Z,11.43
2022-07-25T22:10:33.949Z,12.73
2022-07-25T22:12:35.731Z,9.02
2022-07-25T22:14:37.494Z,12.07
2022-07-25T22:16:39.062Z,9.73
2022-07-25T22:18:42.170Z,11.07
2022-07-25T22:20:43.857Z,11.20
2022-07-25T22:22:45.734Z,10.95
2022-07-25T22:24:47.309Z,11.25
2022-07-25T22:26:48.820Z,10.13
2022-07-25T22:28:50.396Z,10.35
2022-07-25T22:30:52.045Z,11.98
2022-07-25T22:32:53.576Z,11.50
2022-07-25T22:34:56.465Z,11.25
2022-07-25T22:36:58.230Z,8.55
2022-07-25T22:38:59.734Z,10.75
2022-07-25T22:41:01.326Z,10.73
2022-07-25T22:43:02.912Z,13.02
2022-07-25T22:45:05.346Z,11.48
2022-07-25T22:47:06.929Z,8.70
2022-07-25T22:49:08.759Z,10.85
2022-07-25T22:51:11.981Z,11.65
2022-07-25T22:53:13.632Z,12.57
2022-07-25T22:55:15.222Z,11.77
2022-07-25T22:57:16.729Z,11.15
2022-07-25T22:59:18.312Z,14.80
2022-07-25T23:01:20.541Z,10.70
2022-07-25T23:03:22.132Z,11.20
2022-07-25T23:05:23.894Z,16.15
2022-07-25T23:07:26.839Z,11.07
2022-07-25T23:09:36.172Z,11.20
2022-07-25T23:11:38.162Z,10.93
2022-07-25T23:13:39.852Z,13.27
2022-07-25T23:15:50.068Z,11.25
2022-07-25T23:17:52.600Z,12.68
2022-07-25T23:19:55.741Z,12.80
2022-07-25T23:21:57.260Z,11.48
2022-07-25T23:24:00.218Z,10.63
2022-07-25T23:26:02.015Z,12.25
2022-07-25T23:28:03.783Z,12.38
2022-07-25T23:30:06.776Z,11.93
2022-07-25T23:32:09.183Z,15.00
2022-07-25T23:34:10.727Z,13.80
2022-07-25T23:36:12.271Z,14.10
2022-07-25T23:38:14.041Z,14.27
2022-07-25T23:40:16.942Z,13.35
2022-07-25T23:42:18.479Z,13.27
2022-07-25T23:44:20.233Z,13.02
2022-07-25T23:46:27.762Z,11.85
2022-07-25T23:48:31.028Z,12.15
2022-07-25T23:50:32.918Z,13.32
2022-07-25T23:52:34.476Z,13.40
2022-07-25T23:54:36.231Z,12.25
2022-07-25T23:56:39.221Z,12.25
2022-07-25T23:58:40.788Z,11.93
